createdAt,value
2022-10-05T00:00:01.389Z,17.83
2022-10-05T00:03:11.941Z,19.40
2022-10-05T00:06:15.312Z,21.80
2022-10-05T00:09:20.830Z,16.13
2022-10-05T00:12:26.336Z,18.00
2022-10-05T00:15:30.187Z,16.03
2022-10-05T00:18:33.990Z,16.63
2022-10-05T00:21:37.966Z,13.80
2022-10-05T00:24:41.141Z,14.77
2022-10-05T00:27:49.855Z,15.00
2022-10-05T00:30:56.346Z,19.70
2022-10-05T00:33:59.817Z,14.07
2022-10-05T00:37:02.821Z,17.50
2022-10-05T00:40:20.711Z,16.73
2022-10-05T00:43:45.177Z,15.57
2022-10-05T00:46:56.779Z,17.43
2022-10-05T00:50:34.521Z,52.23
2022-10-05T00:53:44.707Z,28.37
2022-10-05T00:57:05.524Z,35.27
2022-10-05T01:00:13.016Z,59.67
2022-10-05T01:03:23.504Z,42.10
2022-10-05T01:06:37.216Z,111.40
2022-10-05T01:09:45.102Z,52.30
2022-10-05T01:12:54.901Z,158.80
2022-10-05T01:16:08.343Z,110.90
2022-10-05T01:19:28.676Z,93.97
2022-10-05T01:22:42.617Z,152.67
2022-10-05T01:25:57.577Z,111.97
2022-10-05T01:29:09.899Z,121.43
2022-10-05T01:32:21.130Z,94.67
2022-10-05T01:35:38.313Z,152.60
2022-10-05T01:38:48.880Z,125.30
2022-10-05T01:42:00.603Z,128.33
2022-10-05T01:45:12.147Z,141.33
2022-10-05T01:48:21.673Z,242.93
2022-10-05T01:51:34.920Z,130.60
2022-10-05T01:54:45.294Z,143.50
2022-10-05T01:58:03.948Z,153.53
2022-10-05T02:01:14.374Z,67.20
2022-10-05T02:04:56.534Z,104.23
2022-10-05T02:07:51.646Z,90.83
2022-10-05T02:11:01.024Z,80.93
2022-10-05T02:14:10.641Z,86.13
2022-10-05T02:17:18.764Z,162.13
2022-10-05T02:20:25.969Z,141.57
2022-10-05T02:23:34.586Z,72.60
2022-10-05T02:26:39.996Z,122.67
2022-10-05T02:29:47.625Z,120.33
2022-10-05T02:32:55.552Z,132.37
2022-10-05T02:36:02.544Z,125.17
2022-10-05T02:39:15.899Z,100.03
2022-10-05T02:42:28.042Z,95.40
2022-10-05T02:45:42.979Z,93.13
2022-10-05T02:49:00.493Z,142.87
2022-10-05T02:52:11.094Z,87.10
2022-10-05T02:55:18.919Z,135.57
2022-10-05T02:58:25.599Z,78.00
2022-10-05T03:01:35.449Z,123.67
2022-10-05T03:04:45.182Z,85.77
2022-10-05T03:07:56.008Z,120.73
2022-10-05T03:11:13.750Z,124.83
2022-10-05T03:14:23.810Z,127.30
2022-10-05T03:17:31.724Z,145.83
2022-10-05T03:20:44.183Z,144.10
2022-10-05T03:24:04.383Z,120.93
2022-10-05T03:27:19.056Z,98.20
2022-10-05T03:30:26.506Z,131.40
2022-10-05T03:33:38.138Z,73.40
2022-10-05T03:36:49.263Z,76.03
2022-10-05T03:39:59.080Z,103.63
2022-10-05T03:43:21.537Z,152.23
2022-10-05T03:46:34.425Z,113.40
2022-10-05T03:49:50.908Z,108.77
2022-10-05T03:52:58.906Z,105.73
2022-10-05T03:56:08.762Z,112.20
2022-10-05T03:59:16.690Z,74.77
2022-10-05T04:02:25.699Z,120.47
2022-10-05T04:05:31.676Z,121.13
2022-10-05T04:08:46.806Z,66.73
2022-10-05T04:11:56.253Z,23.27
2022-10-05T04:15:03.660Z,31.67
2022-10-05T04:18:13.227Z,34.40
2022-10-05T04:21:23.913Z,25.23
2022-10-05T04:24:35.904Z,33.33
2022-10-05T04:27:42.959Z,58.27
2022-10-05T04:30:49.589Z,135.63
2022-10-05T04:34:02.060Z,72.43
2022-10-05T04:37:10.159Z,110.60
2022-10-05T04:40:25.002Z,94.20
2022-10-05T04:43:38.599Z,170.57
2022-10-05T04:46:58.564Z,135.90
2022-10-05T04:50:17.397Z,110.77
2022-10-05T04:53:31.043Z,103.73
2022-10-05T04:56:40.240Z,207.13
2022-10-05T05:00:02.821Z,115.20
2022-10-05T05:03:21.965Z,122.17
2022-10-05T05:06:33.922Z,74.63
2022-10-05T05:09:58.885Z,120.53
2022-10-05T05:13:16.551Z,164.40
2022-10-05T05:16:29.980Z,145.53
2022-10-05T05:19:42.934Z,65.30
2022-10-05T05:22:52.131Z,17.60
2022-10-05T05:26:07.005Z,19.43
2022-10-05T05:29:21.504Z,13.70
2022-10-05T05:32:42.226Z,17.07
2022-10-05T05:36:10.327Z,19.93
2022-10-05T05:39:25.470Z,24.50
2022-10-05T05:42:39.116Z,49.67
2022-10-05T05:45:50.143Z,119.50
2022-10-05T05:48:54.666Z,110.83
2022-10-05T05:52:02.097Z,153.40
2022-10-05T05:55:14.220Z,111.70
2022-10-05T05:58:24.419Z,97.27
2022-10-05T06:01:33.843Z,70.97
2022-10-05T06:04:41.321Z,96.43
2022-10-05T06:07:44.053Z,111.43
2022-10-05T06:14:22.099Z,85.93
2022-10-05T06:17:35.737Z,137.30
2022-10-05T06:20:42.546Z,81.70
2022-10-05T06:23:51.143Z,62.27
2022-10-05T06:27:26.081Z,70.67
2022-10-05T06:30:38.435Z,38.57
2022-10-05T06:33:49.979Z,75.63
2022-10-05T06:37:01.555Z,76.77
2022-10-05T06:40:12.180Z,109.37
2022-10-05T06:43:44.789Z,96.77
2022-10-05T06:47:00.151Z,61.43
2022-10-05T06:50:15.580Z,70.13
2022-10-05T06:53:29.540Z,51.57
2022-10-05T06:56:37.762Z,106.57
2022-10-05T06:59:46.997Z,89.30
2022-10-05T07:02:58.320Z,71.23
2022-10-05T07:06:09.890Z,78.07
2022-10-05T07:09:27.595Z,118.90
2022-10-05T07:12:45.043Z,93.77
2022-10-05T07:15:58.263Z,107.73
2022-10-05T07:19:16.461Z,115.70
2022-10-05T07:22:41.992Z,73.27
2022-10-05T07:25:51.395Z,59.70
2022-10-05T07:29:13.409Z,74.20
2022-10-05T07:32:28.777Z,39.90
2022-10-05T07:36:03.523Z,61.57
2022-10-05T07:39:14.086Z,61.93
2022-10-05T07:42:25.903Z,51.23
2022-10-05T07:45:34.060Z,94.27
2022-10-05T07:48:53.612Z,33.53
2022-10-05T07:52:01.396Z,45.03
2022-10-05T07:55:18.162Z,49.10
2022-10-05T07:58:27.612Z,86.37
2022-10-05T08:01:33.367Z,16.93
2022-10-05T08:04:44.224Z,43.37
2022-10-05T08:07:50.499Z,46.17
2022-10-05T08:11:01.422Z,32.23
2022-10-05T08:14:14.825Z,60.00
2022-10-05T08:17:25.661Z,34.07
2022-10-05T08:20:36.452Z,75.00
2022-10-05T08:23:47.029Z,27.37
2022-10-05T08:26:56.407Z,33.37
2022-10-05T08:30:03.021Z,22.00
2022-10-05T08:33:11.717Z,15.30
2022-10-05T08:36:20.584Z,25.23
2022-10-05T08:39:27.260Z,9.87
2022-10-05T08:43:02.732Z,11.33
2022-10-05T08:46:35.741Z,16.00
2022-10-05T08:50:04.101Z,9.93
2022-10-05T08:53:22.342Z,11.60
2022-10-05T08:56:39.034Z,12.37
2022-10-05T09:00:03.866Z,9.40
2022-10-05T09:03:30.934Z,8.40
2022-10-05T09:06:57.263Z,8.50
2022-10-05T09:10:36.189Z,9.83
2022-10-05T09:14:34.204Z,8.17
2022-10-05T09:18:07.700Z,8.30
2022-10-05T09:21:19.307Z,9.50
2022-10-05T09:24:30.299Z,9.90
2022-10-05T09:27:38.982Z,8.70
2022-10-05T09:30:57.698Z,9.17
2022-10-05T09:34:34.946Z,7.03
2022-10-05T09:38:11.748Z,7.50
2022-10-05T09:41:53.066Z,9.10
2022-10-05T09:45:38.420Z,9.77
2022-10-05T09:49:11.426Z,10.17
2022-10-05T09:52:38.176Z,12.03
2022-10-05T09:56:11.421Z,8.40
2022-10-05T09:59:52.775Z,7.17
2022-10-05T10:03:25.878Z,8.87
2022-10-05T10:06:51.294Z,11.60
2022-10-05T10:10:30.330Z,8.40
2022-10-05T10:13:53.882Z,8.10
2022-10-05T10:17:09.505Z,8.27
2022-10-05T10:20:25.376Z,8.67
2022-10-05T10:24:00.078Z,12.87
2022-10-05T10:27:19.061Z,11.43
2022-10-05T10:30:46.649Z,7.33
2022-10-05T10:34:13.081Z,5.97
2022-10-05T10:37:39.145Z,5.30
2022-10-05T10:40:55.685Z,3.70
2022-10-05T10:44:33.555Z,4.83
2022-10-05T10:47:44.807Z,6.70
2022-10-05T10:51:19.184Z,4.80
2022-10-05T10:55:07.125Z,3.77
2022-10-05T10:58:53.829Z,2.13
2022-10-05T11:02:16.727Z,3.57
2022-10-05T11:05:31.482Z,3.00
2022-10-05T11:09:05.159Z,4.13
2022-10-05T11:12:49.619Z,3.33
2022-10-05T11:16:17.218Z,4.93
2022-10-05T11:20:02.614Z,3.10
2022-10-05T11:23:28.144Z,2.97
2022-10-05T11:26:47.439Z,2.60
2022-10-05T11:30:19.207Z,3.80
2022-10-05T11:34:01.459Z,3.13
2022-10-05T11:37:36.306Z,3.77
2022-10-05T11:41:02.278Z,3.93
2022-10-05T11:44:28.110Z,6.87
2022-10-05T11:47:38.530Z,2.67
2022-10-05T11:50:52.673Z,6.37
2022-10-05T11:54:08.018Z,7.27
2022-10-05T11:57:17.600Z,6.37
2022-10-05T12:00:22.804Z,3.83
2022-10-05T12:03:42.698Z,4.13
2022-10-05T12:07:01.089Z,3.90
2022-10-05T12:10:23.588Z,3.63
2022-10-05T12:13:37.693Z,5.73
2022-10-05T12:16:50.241Z,2.93
2022-10-05T12:19:58.960Z,4.93
2022-10-05T12:23:08.083Z,3.77
2022-10-05T12:26:16.532Z,5.57
2022-10-05T12:29:26.575Z,4.23
2022-10-05T12:32:35.607Z,3.93
2022-10-05T12:35:48.663Z,3.00
2022-10-05T12:39:01.711Z,4.40
2022-10-05T12:42:17.232Z,7.53
2022-10-05T12:45:33.473Z,3.80
2022-10-05T12:48:52.590Z,5.10
2022-10-05T12:51:59.453Z,5.03
2022-10-05T12:55:06.774Z,6.27
2022-10-05T12:58:25.394Z,2.47
2022-10-05T13:01:39.073Z,3.27
2022-10-05T13:04:49.123Z,2.20
2022-10-05T13:08:05.880Z,3.80
2022-10-05T13:11:16.123Z,5.00
2022-10-05T13:14:36.708Z,3.47
2022-10-05T13:17:46.494Z,3.63
2022-10-05T13:20:56.539Z,2.57
2022-10-05T13:24:05.860Z,3.43
2022-10-05T13:27:16.249Z,3.87
2022-10-05T13:30:22.196Z,4.33
2022-10-05T13:33:33.919Z,2.70
2022-10-05T13:36:49.798Z,2.87
2022-10-05T13:40:00.561Z,2.67
2022-10-05T13:43:13.140Z,5.20
2022-10-05T13:46:24.938Z,3.40
2022-10-05T13:49:38.510Z,4.60
2022-10-05T13:52:50.736Z,3.47
2022-10-05T13:56:00.331Z,6.90
2022-10-05T13:59:15.505Z,3.77
2022-10-05T14:02:23.857Z,4.17
2022-10-05T14:05:28.118Z,4.27
2022-10-05T14:08:36.933Z,3.20
2022-10-05T14:11:50.491Z,5.03
2022-10-05T14:14:55.354Z,3.07
2022-10-05T14:18:00.210Z,3.97
2022-10-05T14:21:06.851Z,5.43
2022-10-05T14:24:32.274Z,4.80
2022-10-05T14:27:51.632Z,4.13
2022-10-05T14:30:59.999Z,5.20
2022-10-05T14:34:29.240Z,5.90
2022-10-05T14:37:45.284Z,2.70
2022-10-05T14:41:03.710Z,3.40
2022-10-05T14:44:27.446Z,2.40
2022-10-05T14:47:34.263Z,2.67
2022-10-05T14:50:52.640Z,3.50
2022-10-05T14:53:59.454Z,6.80
2022-10-05T14:57:08.039Z,4.70
2022-10-05T15:00:13.180Z,5.70
2022-10-05T15:03:35.575Z,6.73
2022-10-05T15:06:42.401Z,5.27
2022-10-05T15:09:58.752Z,9.97
2022-10-05T15:13:11.602Z,5.33
2022-10-05T15:16:20.481Z,5.40
2022-10-05T15:19:28.401Z,3.93
2022-10-05T15:22:44.568Z,6.10
2022-10-05T15:25:59.873Z,5.57
2022-10-05T15:29:11.008Z,7.87
2022-10-05T15:32:29.007Z,4.10
2022-10-05T15:35:49.967Z,4.57
2022-10-05T15:39:04.882Z,2.43
2022-10-05T15:42:12.884Z,4.20
2022-10-05T15:45:21.796Z,6.47
2022-10-05T15:48:29.507Z,5.37
2022-10-05T15:51:45.120Z,10.03
2022-10-05T15:55:09.027Z,34.23
2022-10-05T15:58:28.717Z,7.13
2022-10-05T16:01:47.171Z,8.97
2022-10-05T16:05:05.829Z,7.37
2022-10-05T16:08:31.662Z,10.67
2022-10-05T16:11:50.400Z,6.50
2022-10-05T16:15:03.793Z,5.20
2022-10-05T16:18:32.640Z,3.30
2022-10-05T16:21:46.026Z,4.97
2022-10-05T16:25:03.759Z,9.90
2022-10-05T16:28:21.009Z,7.60
2022-10-05T16:31:32.382Z,11.33
2022-10-05T16:34:49.660Z,5.93
2022-10-05T16:38:05.699Z,9.07
2022-10-05T16:41:18.017Z,56.73
2022-10-05T16:44:33.924Z,53.47
2022-10-05T16:47:47.887Z,37.10
2022-10-05T16:51:01.426Z,24.30
2022-10-05T16:54:18.480Z,21.50
2022-10-05T16:57:24.607Z,16.83
2022-10-05T17:00:37.504Z,10.53
2022-10-05T17:03:52.171Z,7.37
2022-10-05T17:07:12.484Z,43.43
2022-10-05T17:10:35.857Z,11.50
2022-10-05T17:13:58.004Z,10.67
2022-10-05T17:17:26.214Z,13.70
2022-10-05T17:20:43.142Z,36.00
2022-10-05T17:23:55.149Z,138.97
2022-10-05T17:27:03.485Z,27.10
2022-10-05T17:30:46.421Z,24.30
2022-10-05T17:34:26.235Z,47.73
2022-10-05T17:37:41.815Z,12.33
2022-10-05T17:41:05.823Z,10.17
2022-10-05T17:44:32.612Z,9.43
2022-10-05T17:47:56.804Z,8.20
2022-10-05T17:51:18.230Z,10.67
2022-10-05T17:54:41.224Z,9.80
2022-10-05T17:57:44.083Z,22.00
2022-10-05T18:01:07.150Z,64.60
2022-10-05T18:04:40.374Z,45.80
2022-10-05T18:07:48.161Z,36.57
2022-10-05T18:11:17.382Z,68.43
2022-10-05T18:14:24.481Z,26.83
2022-10-05T18:17:51.265Z,23.03
2022-10-05T18:21:20.795Z,20.10
2022-10-05T18:25:03.768Z,32.13
2022-10-05T18:28:16.578Z,29.40
2022-10-05T18:31:30.606Z,28.03
2022-10-05T18:34:39.488Z,22.60
2022-10-05T18:37:52.221Z,21.03
2022-10-05T18:41:02.666Z,17.83
2022-10-05T18:44:25.199Z,22.17
2022-10-05T18:47:35.391Z,16.03
2022-10-05T18:50:46.444Z,19.57
2022-10-05T18:54:05.685Z,20.00
2022-10-05T18:57:52.880Z,18.70
2022-10-05T19:01:13.555Z,18.77
2022-10-05T19:04:22.536Z,23.90
2022-10-05T19:07:37.760Z,20.83
2022-10-05T19:10:45.069Z,20.00
2022-10-05T19:14:00.881Z,23.83
2022-10-05T19:17:23.095Z,20.80
2022-10-05T19:20:34.074Z,24.37
2022-10-05T19:23:56.320Z,15.27
2022-10-05T19:27:07.776Z,9.77
2022-10-05T19:30:20.981Z,16.97
2022-10-05T19:33:35.781Z,13.77
2022-10-05T19:36:53.662Z,12.93
2022-10-05T19:40:07.252Z,14.30
2022-10-05T19:43:28.207Z,13.90
2022-10-05T19:46:50.330Z,14.20
2022-10-05T19:50:00.416Z,24.13
2022-10-05T19:53:12.308Z,11.23
2022-10-05T19:56:20.548Z,13.47
2022-10-05T19:59:27.175Z,12.30
2022-10-05T20:02:32.650Z,14.07
2022-10-05T20:05:35.568Z,11.67
2022-10-05T20:08:40.372Z,16.43
2022-10-05T20:11:49.997Z,15.30
2022-10-05T20:15:27.659Z,14.87
2022-10-05T20:18:56.808Z,14.40
2022-10-05T20:22:00.535Z,15.53
2022-10-05T20:25:06.257Z,14.53
2022-10-05T20:28:09.004Z,18.80
2022-10-05T20:31:12.433Z,21.17
2022-10-05T20:34:17.981Z,14.50
2022-10-05T20:37:20.794Z,10.93
2022-10-05T20:40:23.501Z,13.63
2022-10-05T20:43:26.270Z,14.30
2022-10-05T20:46:30.951Z,11.27
2022-10-05T20:49:36.635Z,19.30
2022-10-05T20:52:39.769Z,13.93
2022-10-05T20:55:43.352Z,14.13
2022-10-05T20:58:46.050Z,10.40
2022-10-05T21:01:49.312Z,15.27
2022-10-05T21:04:53.830Z,14.80
2022-10-05T21:07:56.751Z,16.00
2022-10-05T21:10:59.441Z,10.90
2022-10-05T21:14:05.567Z,17.90
2022-10-05T21:17:09.431Z,9.83
2022-10-05T21:20:13.968Z,14.63
2022-10-05T21:23:16.679Z,10.80
2022-10-05T21:26:19.796Z,10.60
2022-10-05T21:29:22.785Z,9.80
2022-10-05T21:32:25.563Z,15.73
2022-10-05T21:35:29.595Z,10.93
2022-10-05T21:38:32.636Z,15.47
2022-10-05T21:41:35.383Z,9.70
2022-10-05T21:44:38.345Z,15.77
2022-10-05T21:47:42.058Z,14.00
2022-10-05T21:50:46.465Z,16.23
2022-10-05T21:53:52.885Z,12.53
2022-10-05T21:56:58.353Z,14.50
2022-10-05T22:00:01.524Z,12.33
2022-10-05T22:03:04.469Z,22.67
2022-10-05T22:06:09.139Z,13.57
2022-10-05T22:09:12.235Z,13.87
2022-10-05T22:12:15.599Z,19.27
2022-10-05T22:15:18.915Z,10.37
2022-10-05T22:18:22.043Z,17.40
2022-10-05T22:21:26.785Z,14.70
2022-10-05T22:24:29.922Z,12.13
2022-10-05T22:27:33.766Z,11.33
2022-10-05T22:30:37.008Z,8.83
2022-10-05T22:33:40.488Z,10.43
2022-10-05T22:36:46.100Z,16.23
2022-10-05T22:39:49.217Z,19.30
2022-10-05T22:42:53.463Z,14.17
2022-10-05T22:45:57.001Z,18.50
2022-10-05T22:48:59.981Z,13.50
2022-10-05T22:52:04.413Z,15.37
2022-10-05T22:55:08.066Z,15.97
2022-10-05T22:58:11.122Z,23.40
2022-10-05T23:01:15.426Z,19.40
2022-10-05T23:04:18.202Z,18.57
2022-10-05T23:07:22.271Z,15.60
2022-10-05T23:10:26.104Z,13.53
2022-10-05T23:13:29.331Z,14.17
2022-10-05T23:16:32.132Z,17.10
2022-10-05T23:19:35.199Z,17.87
2022-10-05T23:22:40.128Z,21.20
2022-10-05T23:25:43.108Z,13.57
2022-10-05T23:28:47.431Z,18.73
2022-10-05T23:31:50.688Z,19.37
2022-10-05T23:34:53.339Z,13.27
2022-10-05T23:37:57.409Z,13.23
2022-10-05T23:41:00.468Z,15.27
2022-10-05T23:44:03.165Z,12.70
2022-10-05T23:47:06.053Z,16.20
2022-10-05T23:50:10.041Z,18.47
2022-10-05T23:53:14.187Z,11.03
2022-10-05T23:56:16.910Z,13.40
2022-10-05T23:59:19.933Z,10.77
